Time;durP1;ratioP1;P1;durP2;ratioP2;P2;SDS_P1;SDS_P2;PMS_P1;PMS_P2;Temp;Humidity;BMP_temperature;BMP_pressure;BME280_temperature;BME280_humidity;BME280_pressure;Samples;Min_cycle;Max_cycle;Signal;HPM_P1;HPM_P2
2022/07/16 00:04:35;;;;;;;6.37;1.37;;;;;;;15.45;60.83;100695.95;3402720;86;99203;-83
2022/07/16 00:09:36;;;;;;;5.23;1.47;;;;;;;15.46;61.24;100690.59;3422084;84;99242;-83
2022/07/16 00:14:37;;;;;;;10.03;2.30;;;;;;;15.50;61.92;100690.80;3431074;86;99271;-83
2022/07/16 00:19:39;;;;;;;4.20;1.20;;;;;;;15.46;61.56;100690.02;3405271;85;99286;-82
2022/07/16 00:24:40;;;;;;;4.77;1.30;;;;;;;15.51;62.14;100691.56;3438590;84;32886;-82
2022/07/16 00:29:41;;;;;;;3.83;1.53;;;;;;;15.53;62.02;100689.97;3416340;85;98648;-82
2022/07/16 00:34:42;;;;;;;4.07;1.57;;;;;;;15.53;61.71;100687.19;3425891;85;99262;-82
2022/07/16 00:39:43;;;;;;;4.30;1.50;;;;;;;15.45;61.08;100681.50;3425038;85;99307;-82
2022/07/16 00:44:44;;;;;;;4.37;1.50;;;;;;;15.46;60.90;100678.11;3424875;85;99321;-83
2022/07/16 00:49:45;;;;;;;8.17;1.93;;;;;;;15.50;61.87;100674.15;3424303;85;99300;-83
2022/07/16 00:54:46;;;;;;;6.37;2.10;;;;;;;15.50;61.33;100667.21;3442313;84;32994;-82
2022/07/16 00:59:48;;;;;;;6.63;1.80;;;;;;;15.47;60.65;100653.36;3428497;85;98963;-82
2022/07/16 01:04:49;;;;;;;5.17;1.90;;;;;;;15.44;60.45;100657.73;3451387;85;98955;-82
2022/07/16 01:09:51;;;;;;;3.83;1.60;;;;;;;15.44;60.15;100645.84;3433824;83;99252;-83
2022/07/16 01:14:53;;;;;;;4.73;1.40;;;;;;;15.41;60.05;100652.18;3427026;85;99347;-82
2022/07/16 01:19:54;;;;;;;4.37;1.90;;;;;;;15.40;60.51;100643.67;3428708;84;98821;-82
2022/07/16 01:24:55;;;;;;;9.53;1.80;;;;;;;15.44;61.28;100640.29;3410744;84;32879;-82
2022/07/16 01:29:56;;;;;;;4.80;1.50;;;;;;;15.51;61.38;100640.24;3418293;85;99246;-82
2022/07/16 01:34:57;;;;;;;3.43;1.50;;;;;;;15.49;61.82;100640.64;3434448;85;99095;-82
2022/07/16 01:39:58;;;;;;;7.23;1.80;;;;;;;15.52;62.08;100644.59;3431991;85;99240;-82
2022/07/16 01:45:00;;;;;;;5.07;1.47;;;;;;;15.53;62.13;100635.88;3445772;85;99225;-82
2022/07/16 01:50:01;;;;;;;4.83;1.40;;;;;;;15.55;62.34;100635.47;3422431;85;99220;-82
2022/07/16 01:55:02;;;;;;;8.13;1.67;;;;;;;15.54;62.78;100636.06;3444380;85;33620;-82
2022/07/16 02:00:04;;;;;;;7.22;1.52;;;;;;;15.54;63.03;100634.67;3422094;84;98685;-82
2022/07/16 02:05:06;;;;;;;3.40;1.32;;;;;;;15.56;63.08;100632.30;3457643;84;98716;-82
2022/07/16 02:10:08;;;;;;;3.98;1.57;;;;;;;15.51;62.85;100627.77;3436884;85;98888;-83
2022/07/16 02:15:10;;;;;;;5.22;1.98;;;;;;;15.44;62.39;100629.20;3450314;85;99206;-82
2022/07/16 02:20:12;;;;;;;6.33;2.00;;;;;;;15.39;61.89;100616.55;3459222;84;98877;-83
2022/07/16 02:25:13;;;;;;;2.72;1.37;;;;;;;15.34;61.69;100608.66;3436404;83;32911;-82
2022/07/16 02:30:14;;;;;;;5.33;1.70;;;;;;;15.33;62.36;100607.08;3460314;84;98938;-83
2022/07/16 02:35:15;;;;;;;7.23;1.60;;;;;;;15.34;62.20;100600.92;3459160;85;97923;-82
2022/07/16 02:40:17;;;;;;;5.50;2.10;;;;;;;15.28;62.19;100601.92;3432946;85;98836;-82
2022/07/16 02:45:18;;;;;;;5.15;1.70;;;;;;;15.28;62.73;100599.73;3454782;85;98832;-82
2022/07/16 02:50:20;;;;;;;4.63;1.47;;;;;;;15.23;62.49;100590.45;3435690;85;99108;-83
2022/07/16 02:55:22;;;;;;;4.67;1.33;;;;;;;15.22;63.12;100587.49;3449511;85;26562;-82
2022/07/16 03:00:25;;;;;;;5.58;1.50;;;;;;;15.23;62.78;100597.38;3440596;84;98829;-82
2022/07/16 03:05:26;;;;;;;6.10;2.17;;;;;;;15.21;63.17;100603.33;3440901;85;97813;-82
2022/07/16 03:10:28;;;;;;;5.85;1.60;;;;;;;15.19;63.46;100594.63;3423925;84;99154;-82
2022/07/16 03:15:29;;;;;;;5.00;1.47;;;;;;;15.20;63.88;100596.20;3446886;85;99271;-82
2022/07/16 03:20:30;;;;;;;5.83;1.83;;;;;;;15.20;64.04;100593.44;3401088;85;99233;-82
2022/07/16 03:25:31;;;;;;;5.07;1.83;;;;;;;15.20;64.13;100595.44;3441071;84;99257;-82
2022/07/16 03:30:32;;;;;;;5.37;1.27;;;;;;;15.20;64.57;100596.20;3451102;84;98744;-82
2022/07/16 03:35:33;;;;;;;4.43;1.80;;;;;;;15.20;64.78;100590.66;3441591;85;98345;-82
2022/07/16 03:40:34;;;;;;;4.75;1.50;;;;;;;15.19;64.20;100592.44;3448047;83;98910;-82
2022/07/16 03:45:36;;;;;;;9.33;1.97;;;;;;;15.19;64.81;100579.97;3414667;85;98831;-82
2022/07/16 03:50:36;;;;;;;5.77;1.93;;;;;;;15.19;64.80;100586.31;3431112;85;98852;-82
2022/07/16 03:55:37;;;;;;;7.10;1.70;;;;;;;15.19;64.30;100583.54;3433097;84;98818;-82
2022/07/16 04:00:38;;;;;;;4.03;1.47;;;;;;;15.23;65.19;100585.70;3419796;84;98559;-82
2022/07/16 04:05:39;;;;;;;6.07;1.80;;;;;;;15.25;65.22;100586.08;3422545;85;99093;-83
2022/07/16 04:10:40;;;;;;;5.03;1.70;;;;;;;15.28;64.68;100585.87;3449848;84;98844;-82
2022/07/16 04:15:41;;;;;;;10.05;1.80;;;;;;;15.32;64.57;100590.81;3433547;85;99268;-83
2022/07/16 04:20:42;;;;;;;6.00;2.03;;;;;;;15.37;64.37;100581.48;3433050;85;99499;-82
2022/07/16 04:25:44;;;;;;;5.10;1.87;;;;;;;15.40;64.14;100576.52;3446593;85;98936;-82
2022/07/16 04:30:45;;;;;;;7.20;1.87;;;;;;;15.41;63.93;100574.52;3440373;85;98524;-83
2022/07/16 04:35:48;;;;;;;7.05;1.87;;;;;;;15.45;63.88;100569.75;3437908;85;98777;-82
2022/07/16 04:40:49;;;;;;;5.90;2.05;;;;;;;15.48;63.64;100562.02;3439016;84;98625;-84
2022/07/16 04:45:50;;;;;;;5.33;1.80;;;;;;;15.48;63.51;100549.53;3450446;85;98855;-82
2022/07/16 04:50:51;;;;;;;6.95;1.98;;;;;;;15.53;63.69;100549.11;3442576;83;98858;-82
2022/07/16 04:55:52;;;;;;;7.60;2.52;;;;;;;15.62;63.65;100548.83;3456748;84;98989;-82
2022/07/16 05:00:53;;;;;;;8.37;2.73;;;;;;;15.73;63.58;100548.15;3447982;85;98761;-81
2022/07/16 05:05:54;;;;;;;9.27;1.80;;;;;;;15.87;63.55;100552.18;3445532;85;98959;-83
2022/07/16 05:10:55;;;;;;;8.23;2.33;;;;;;;16.07;63.41;100540.70;3443843;84;98729;-83
2022/07/16 05:15:57;;;;;;;5.83;1.80;;;;;;;16.20;63.01;100543.77;3440678;84;98795;-82
2022/07/16 05:20:58;;;;;;;7.30;1.85;;;;;;;16.29;62.85;100539.30;3432137;85;98924;-83
2022/07/16 05:25:59;;;;;;;6.83;1.67;;;;;;;16.38;62.93;100527.11;3439987;84;98863;-82
2022/07/16 05:31:00;;;;;;;6.70;2.00;;;;;;;16.51;63.37;100524.00;3414759;85;98408;-82
2022/07/16 05:36:01;;;;;;;6.90;2.00;;;;;;;16.72;63.36;100510.45;3439705;85;98782;-84
2022/07/16 05:41:02;;;;;;;6.08;1.90;;;;;;;16.81;62.87;100513.52;3430753;84;98685;-82
2022/07/16 05:46:03;;;;;;;7.10;1.90;;;;;;;16.84;62.31;100509.92;3421947;85;98821;-82
2022/07/16 05:51:04;;;;;;;6.70;2.45;;;;;;;16.80;62.29;100506.39;3428166;85;98919;-82
2022/07/16 05:56:05;;;;;;;5.17;1.87;;;;;;;16.91;62.22;100505.65;3421174;85;98733;-82
2022/07/16 06:01:07;;;;;;;5.85;1.50;;;;;;;17.10;62.71;100509.14;3428549;85;98373;-83
2022/07/16 06:06:08;;;;;;;6.35;1.80;;;;;;;17.15;62.00;100507.28;3433790;85;98710;-83
2022/07/16 06:11:09;;;;;;;6.58;1.75;;;;;;;17.38;61.96;100498.42;3418948;85;98678;-83
2022/07/16 06:16:10;;;;;;;4.00;1.42;;;;;;;17.77;62.04;100499.97;3433168;85;98796;-84
2022/07/16 06:21:11;;;;;;;4.42;1.50;;;;;;;18.05;60.57;100494.52;3442189;83;98834;-84
2022/07/16 06:26:12;;;;;;;6.58;1.55;;;;;;;18.26;60.57;100483.75;3456669;84;99150;-82
2022/07/16 06:31:13;;;;;;;5.17;1.70;;;;;;;18.91;59.82;100482.83;3428420;85;98532;-84
2022/07/16 06:36:14;;;;;;;9.63;1.72;;;;;;;19.21;58.48;100486.78;3391534;85;98531;-83
2022/07/16 06:41:17;;;;;;;5.53;1.20;;;;;;;19.52;58.25;100470.48;3427047;85;98712;-83
2022/07/16 06:46:19;;;;;;;8.80;1.50;;;;;;;19.92;57.32;100454.48;3428287;85;98811;-84
2022/07/16 06:51:19;;;;;;;6.97;1.55;;;;;;;20.02;56.37;100448.43;3430132;85;99205;-85
2022/07/16 06:56:21;;;;;;;5.67;1.40;;;;;;;20.07;55.70;100448.73;3422017;85;99140;-82
2022/07/16 07:01:23;;;;;;;5.10;1.70;;;;;;;20.20;55.28;100436.17;3429296;85;98263;-82
2022/07/16 07:06:24;;;;;;;4.92;1.35;;;;;;;20.43;54.77;100439.50;3428989;85;98531;-82
2022/07/16 07:11:25;;;;;;;6.85;1.47;;;;;;;20.79;54.34;100434.44;3444636;85;98974;-82
2022/07/16 07:16:26;;;;;;;7.22;1.57;;;;;;;20.94;53.21;100434.81;3438818;84;98933;-82
2022/07/16 07:21:27;;;;;;;7.12;0.90;;;;;;;20.81;53.13;100418.61;3451223;85;98005;-83
2022/07/16 07:26:28;;;;;;;4.17;1.70;;;;;;;20.90;53.42;100415.95;3417028;84;98866;-83
2022/07/16 07:31:29;;;;;;;6.78;1.27;;;;;;;20.98;52.84;100419.47;3445371;85;98872;-82
2022/07/16 07:36:30;;;;;;;8.30;1.27;;;;;;;20.80;51.78;100407.23;3436169;85;98890;-82
2022/07/16 07:41:31;;;;;;;4.80;1.10;;;;;;;20.53;52.01;100407.66;3410248;85;98651;-82
2022/07/16 07:46:33;;;;;;;3.05;0.88;;;;;;;20.45;52.37;100418.09;3421930;85;99250;-81
2022/07/16 07:51:34;;;;;;;2.27;0.93;;;;;;;20.21;52.11;100418.20;3431734;85;98880;-81
2022/07/16 07:56:35;;;;;;;4.03;1.17;;;;;;;20.21;52.92;100421.77;3438101;85;98688;-81
2022/07/16 08:01:36;;;;;;;5.62;1.30;;;;;;;20.09;52.22;100426.70;3467177;84;98075;-82
2022/07/16 08:06:37;;;;;;;4.83;0.80;;;;;;;20.01;52.77;100428.08;3449399;84;98970;-84
2022/07/16 08:11:38;;;;;;;5.05;1.22;;;;;;;19.86;53.56;100431.70;3427500;84;98873;-85
2022/07/16 08:16:40;;;;;;;4.40;0.90;;;;;;;19.48;54.96;100444.66;3450171;84;98894;-86
2022/07/16 08:21:41;;;;;;;3.08;1.00;;;;;;;18.95;56.90;100438.92;3446919;84;98849;-85
2022/07/16 08:26:42;;;;;;;4.28;1.00;;;;;;;18.48;58.76;100446.55;3425843;84;100062;-86
2022/07/16 08:31:43;;;;;;;5.45;1.25;;;;;;;18.08;61.08;100442.12;3435383;85;98982;-88
2022/07/16 08:36:44;;;;;;;4.08;1.00;;;;;;;17.87;62.47;100443.94;3430671;85;98812;-86
2022/07/16 08:41:46;;;;;;;5.42;1.55;;;;;;;17.63;63.83;100450.71;3466201;85;98633;-86
2022/07/16 08:46:49;;;;;;;6.35;1.30;;;;;;;17.33;65.30;100446.01;3435333;84;99119;-86
2022/07/16 08:51:54;;;;;;;4.65;1.70;;;;;;;16.96;66.89;100429.50;3458767;85;99014;-86
2022/07/16 08:56:55;;;;;;;5.42;1.67;;;;;;;16.54;69.48;100431.50;3457265;84;98952;-83
2022/07/16 09:01:56;;;;;;;6.30;2.00;;;;;;;16.08;70.83;100427.67;3454887;85;98922;-82
2022/07/16 09:06:57;;;;;;;10.58;2.02;;;;;;;15.89;72.40;100438.78;3428170;85;98596;-83
2022/07/16 09:11:58;;;;;;;4.87;1.77;;;;;;;15.75;73.36;100434.75;3438033;85;98855;-83
2022/07/16 09:17:00;;;;;;;5.63;1.93;;;;;;;15.57;74.52;100455.53;3435820;84;98771;-82
2022/07/16 09:22:06;;;;;;;4.67;1.57;;;;;;;15.25;78.48;100453.57;3450081;85;98871;-83
2022/07/16 09:27:17;;;;;;;7.08;2.02;;;;;;;15.02;78.30;100449.99;3411448;84;99180;-89
2022/07/16 09:32:39;;;;;;;5.75;2.22;;;;;;;14.84;80.01;100449.91;3421487;85;99594;-82
2022/07/16 09:37:54;;;;;;;7.28;2.30;;;;;;;14.71;81.00;100455.11;3403039;85;99311;-85
2022/07/16 09:42:55;;;;;;;6.60;2.60;;;;;;;14.66;81.64;100460.30;3419583;85;32451;-84
2022/07/16 09:47:56;;;;;;;6.05;2.50;;;;;;;14.57;82.64;100451.05;3390495;85;99154;-86
2022/07/16 09:53:03;;;;;;;6.03;2.20;;;;;;;14.58;83.20;100447.66;3445301;85;98827;-90
2022/07/16 09:58:04;;;;;;;7.12;2.80;;;;;;;14.60;84.45;100453.00;3434881;84;98944;-89
2022/07/16 10:03:05;;;;;;;4.20;2.17;;;;;;;14.62;85.85;100455.37;3434714;85;98910;-89
2022/07/16 10:08:09;;;;;;;5.53;2.65;;;;;;;14.73;86.33;100451.36;3401124;85;98849;-88
2022/07/16 10:13:14;;;;;;;7.40;2.47;;;;;;;14.75;86.29;100462.82;3428808;86;33215;-88
2022/07/16 10:18:40;;;;;;;6.65;2.55;;;;;;;14.78;87.09;100469.53;3402736;85;98892;-89
2022/07/16 10:23:52;;;;;;;6.53;3.02;;;;;;;14.92;87.54;100466.66;3427854;86;99079;-88
2022/07/16 10:28:55;;;;;;;5.75;3.05;;;;;;;15.11;87.62;100463.39;3395324;84;98859;-89
2022/07/16 10:34:17;;;;;;;7.87;3.70;;;;;;;15.36;87.66;100462.66;3415944;85;98002;-90
2022/07/16 10:39:20;;;;;;;7.33;3.45;;;;;;;15.72;89.25;100448.06;3412043;85;98935;-90
2022/07/16 10:44:25;;;;;;;6.65;3.20;;;;;;;16.15;89.57;100431.16;3425588;85;98983;-87
2022/07/16 10:49:29;;;;;;;7.53;3.02;;;;;;;16.52;87.36;100450.55;3416105;85;98944;-88
2022/07/16 10:54:40;;;;;;;6.15;2.90;;;;;;;16.86;87.48;100444.36;3433025;85;33140;-88
2022/07/16 10:59:45;;;;;;;5.35;2.77;;;;;;;17.06;85.54;100438.91;3429902;85;99037;-93
2022/07/16 11:04:48;;;;;;;6.40;2.17;;;;;;;17.32;86.34;100439.47;3442751;85;99294;-91
2022/07/16 11:09:56;;;;;;;4.28;2.10;;;;;;;17.73;85.40;100439.41;3450446;83;98887;-94
2022/07/16 11:14:59;;;;;;;4.45;1.72;;;;;;;17.82;83.19;100441.64;3465508;85;99070;-92
2022/07/16 11:20:05;;;;;;;5.50;2.20;;;;;;;17.87;82.39;100436.98;3445862;85;99292;-91
2022/07/16 11:25:06;;;;;;;3.90;1.98;;;;;;;17.97;80.85;100440.14;3465163;83;32557;-91
2022/07/16 11:30:10;;;;;;;4.28;1.95;;;;;;;18.34;80.65;100443.44;3460516;85;98743;-95
2022/07/16 11:35:13;;;;;;;4.97;1.50;;;;;;;18.80;79.69;100441.08;3454418;84;98694;-92
2022/07/16 11:40:14;;;;;;;6.33;1.45;;;;;;;19.32;77.74;100446.05;3444963;84;98927;-95
2022/07/16 11:45:15;;;;;;;4.67;2.10;;;;;;;19.82;76.99;100446.37;3438429;85;99067;-93
2022/07/16 11:50:27;;;;;;;1.87;0.90;;;;;;;20.37;76.23;100453.86;3457299;84;98806;-94
2022/07/16 11:55:28;;;;;;;2.08;1.00;;;;;;;20.63;73.07;100459.70;3453958;85;98953;-94
2022/07/16 12:00:42;;;;;;;1.62;0.80;;;;;;;20.83;70.19;100458.91;3450791;84;98470;-90
2022/07/16 12:05:44;;;;;;;1.15;0.98;;;;;;;20.79;68.96;100465.21;3454886;85;98625;-92
2022/07/16 12:10:50;;;;;;;1.62;0.90;;;;;;;21.29;69.60;100476.47;3445768;85;99009;-89
2022/07/16 12:15:58;;;;;;;4.15;0.90;;;;;;;21.92;68.52;100472.20;3423523;83;99230;-92
2022/07/16 12:21:26;;;;;;;3.35;0.80;;;;;;;22.54;66.81;100482.41;3435444;85;98890;-91
2022/07/16 12:26:35;;;;;;;3.83;1.17;;;;;;;22.91;63.99;100472.38;3443121;83;99086;-92
2022/07/16 12:31:38;;;;;;;1.85;0.93;;;;;;;23.07;62.40;100465.13;3451810;85;98783;-94
2022/07/16 12:36:41;;;;;;;5.40;1.60;;;;;;;22.83;60.58;100499.13;3459189;84;98810;-84
2022/07/16 12:41:47;;;;;;;3.05;0.90;;;;;;;22.36;59.67;100576.98;3461213;84;98632;-84
2022/07/16 12:46:51;;;;;;;4.30;1.10;;;;;;;21.50;60.63;100532.41;3441481;85;98947;-86
2022/07/16 12:51:56;;;;;;;4.20;0.98;;;;;;;21.39;62.74;100517.34;3437402;85;98905;-87
2022/07/16 13:02:17;;;;;;;4.37;1.27;;;;;;;21.01;66.29;100514.34;3436068;84;99200;-89
2022/07/16 13:07:17;;;;;;;1.57;0.82;;;;;;;20.86;66.97;100518.75;3443539;85;98620;-89
2022/07/16 13:12:18;;;;;;;1.90;0.80;;;;;;;20.77;66.78;100531.22;3423263;85;98479;-87
2022/07/16 13:17:19;;;;;;;2.98;1.07;;;;;;;21.06;68.40;100540.38;3438671;84;98875;-90
2022/07/16 13:22:20;;;;;;;2.83;1.30;;;;;;;21.07;67.66;100530.74;3450414;85;98757;-88
2022/07/16 13:27:21;;;;;;;3.83;1.42;;;;;;;21.06;66.60;100531.98;3417460;84;98926;-89
2022/07/16 13:32:22;;;;;;;2.60;1.02;;;;;;;21.04;65.89;100549.84;3433833;85;98837;-90
2022/07/16 13:37:23;;;;;;;2.83;1.40;;;;;;;20.95;65.38;100545.50;3446778;84;98570;-92
2022/07/16 13:42:24;;;;;;;3.22;1.55;;;;;;;20.83;64.96;100537.23;3450704;85;98679;-92
2022/07/16 13:47:25;;;;;;;3.17;1.50;;;;;;;20.74;65.03;100555.87;3392937;84;98799;-91
2022/07/16 13:52:26;;;;;;;3.92;1.45;;;;;;;20.54;65.03;100552.45;3436112;85;99138;-92
2022/07/16 14:02:47;;;;;;;4.67;0.98;;;;;;;20.01;65.21;100571.96;3396840;86;98812;-85
2022/07/16 14:07:48;;;;;;;2.98;1.15;;;;;;;19.42;65.66;100576.20;3387112;85;99064;-87
2022/07/16 14:12:49;;;;;;;5.13;1.27;;;;;;;19.28;66.90;100573.71;3436546;85;26536;-90
2022/07/16 14:17:50;;;;;;;2.33;0.97;;;;;;;19.33;67.75;100579.59;3429640;85;98614;-91
2022/07/16 14:22:52;;;;;;;4.87;1.10;;;;;;;19.49;68.59;100575.44;3399610;85;98725;-93
2022/07/16 14:27:53;;;;;;;2.87;0.90;;;;;;;19.69;68.52;100585.94;3393108;85;99173;-93
2022/07/16 14:32:54;;;;;;;2.77;1.00;;;;;;;19.94;68.83;100571.38;3437235;85;98774;-91
2022/07/16 14:37:56;;;;;;;2.80;1.20;;;;;;;20.15;68.18;100582.83;3419880;85;98831;-93
2022/07/16 14:42:57;;;;;;;2.77;1.37;;;;;;;20.10;66.07;100586.78;3425188;86;26396;-87
2022/07/16 14:47:58;;;;;;;3.27;1.40;;;;;;;19.99;65.67;100604.39;3423172;86;99074;-90
2022/07/16 14:52:59;;;;;;;3.67;1.57;;;;;;;19.87;65.10;100604.45;3437967;86;98629;-91
2022/07/16 14:58:00;;;;;;;3.93;1.43;;;;;;;19.79;65.05;100605.83;3424591;85;99029;-91
2022/07/16 15:03:01;;;;;;;3.20;1.53;;;;;;;19.59;65.14;100601.53;3411844;85;98859;-89
2022/07/16 15:08:02;;;;;;;5.20;1.87;;;;;;;19.56;65.65;100603.18;3391692;86;99118;-89
2022/07/16 15:13:05;;;;;;;5.53;1.33;;;;;;;19.36;64.51;100628.97;3432059;86;32988;-90
2022/07/16 15:18:06;;;;;;;3.60;1.17;;;;;;;19.13;64.72;100629.01;3436084;84;98622;-88
2022/07/16 15:23:07;;;;;;;6.63;1.83;;;;;;;19.00;64.43;100628.09;3417826;85;98625;-89
2022/07/16 15:28:08;;;;;;;5.58;1.40;;;;;;;18.85;64.75;100638.57;3422826;84;98853;-90
2022/07/16 15:38:29;;;;;;;3.92;1.20;;;;;;;18.65;64.30;100671.20;3422534;85;99467;-91
2022/07/16 15:43:31;;;;;;;3.83;1.27;;;;;;;18.58;64.72;100669.31;3419139;86;98922;-90
2022/07/16 15:48:32;;;;;;;4.45;2.08;;;;;;;18.56;64.87;100683.50;3409544;85;98687;-90
2022/07/16 15:53:34;;;;;;;4.90;1.80;;;;;;;18.48;64.74;100687.63;3433006;86;98775;-88
2022/07/16 15:58:35;;;;;;;7.00;2.40;;;;;;;18.41;64.51;100691.91;3436045;85;98826;-88
2022/07/16 16:03:36;;;;;;;7.53;2.30;;;;;;;18.30;64.62;100703.21;3419026;84;98944;-91
2022/07/16 16:08:38;;;;;;;9.03;2.90;;;;;;;18.23;64.48;100714.47;3426028;83;98804;-87
2022/07/16 16:13:39;;;;;;;6.60;2.60;;;;;;;18.18;64.04;100712.75;3431423;86;98871;-93
2022/07/16 16:18:41;;;;;;;5.63;1.73;;;;;;;18.18;64.75;100708.58;3400925;86;98711;-91
2022/07/16 16:23:42;;;;;;;4.92;1.95;;;;;;;18.08;64.09;100708.13;3414908;85;98640;-90
2022/07/16 16:28:43;;;;;;;1.30;0.87;;;;;;;17.99;63.70;100705.09;3423116;84;98889;-89
2022/07/16 16:33:45;;;;;;;2.83;1.20;;;;;;;17.84;63.75;100704.52;3418623;86;98824;-92
2022/07/16 16:38:46;;;;;;;3.47;0.80;;;;;;;17.81;63.64;100722.05;3435461;85;98896;-90
2022/07/16 16:43:47;;;;;;;2.43;1.00;;;;;;;17.69;63.10;100732.36;3398826;85;98882;-89
2022/07/16 16:48:48;;;;;;;5.50;1.10;;;;;;;17.57;62.51;100730.72;3402733;85;98659;-91
2022/07/16 16:53:49;;;;;;;5.77;1.33;;;;;;;17.47;62.64;100744.96;3401431;85;97805;-90
2022/07/16 16:58:50;;;;;;;4.90;1.70;;;;;;;17.38;62.68;100744.66;3389592;85;99038;-90
2022/07/16 17:03:51;;;;;;;7.35;2.00;;;;;;;17.32;62.77;100745.48;3448165;84;99174;-91
2022/07/16 17:08:55;;;;;;;4.70;0.87;;;;;;;17.27;62.95;100753.70;3457343;84;99303;-91
2022/07/16 17:13:56;;;;;;;3.37;1.33;;;;;;;17.27;63.07;100745.97;3445395;85;98752;-90
2022/07/16 17:18:57;;;;;;;3.30;1.30;;;;;;;17.24;62.02;100742.02;3459486;84;98514;-93
2022/07/16 17:23:58;;;;;;;3.90;1.05;;;;;;;17.18;62.26;100745.07;3467289;84;99096;-92
2022/07/16 17:28:59;;;;;;;3.37;0.82;;;;;;;17.12;62.63;100757.83;3473391;83;98834;-92
2022/07/16 17:34:00;;;;;;;2.37;0.80;;;;;;;17.02;62.74;100771.26;3477584;84;99153;-92
2022/07/16 17:39:02;;;;;;;3.30;0.87;;;;;;;16.95;62.88;100777.48;3449076;84;98931;-91
2022/07/16 17:44:04;;;;;;;5.13;1.40;;;;;;;16.89;63.28;100789.64;3499742;84;99237;-92
2022/07/16 17:54:24;;;;;;;3.92;1.02;;;;;;;16.73;63.99;100797.71;3487455;84;98973;-91
2022/07/16 17:59:25;;;;;;;7.63;2.43;;;;;;;16.67;64.56;100807.69;3482018;84;98984;-90
2022/07/16 18:04:26;;;;;;;5.97;1.27;;;;;;;16.66;64.75;100806.70;3476642;85;99199;-92
2022/07/16 18:09:28;;;;;;;7.12;1.40;;;;;;;16.64;65.16;100818.25;3461866;85;99078;-91
2022/07/16 18:14:31;;;;;;;5.13;1.10;;;;;;;16.62;65.61;100818.47;3460894;85;98834;-90
2022/07/16 18:19:32;;;;;;;3.70;1.25;;;;;;;16.63;65.80;100824.98;3465170;84;99151;-91
2022/07/16 18:24:33;;;;;;;3.17;1.17;;;;;;;16.61;65.64;100830.75;3473811;85;25850;-90
2022/07/16 18:29:35;;;;;;;4.70;1.23;;;;;;;16.59;65.47;100837.33;3464829;84;99135;-93
2022/07/16 18:34:36;;;;;;;4.80;1.05;;;;;;;16.54;65.23;100838.56;3457185;85;98788;-92
2022/07/16 18:39:37;;;;;;;8.17;1.50;;;;;;;16.49;65.01;100842.36;3446053;83;99164;-91
2022/07/16 18:44:38;;;;;;;6.37;1.80;;;;;;;16.44;64.92;100849.72;3446063;85;98991;-92
2022/07/16 18:49:39;;;;;;;3.97;1.30;;;;;;;16.37;65.38;100858.08;3448719;84;98857;-91
2022/07/16 18:54:40;;;;;;;4.30;1.23;;;;;;;16.30;65.62;100864.45;3447422;85;30104;-90
2022/07/16 18:59:41;;;;;;;4.77;1.60;;;;;;;16.22;65.99;100876.81;3451457;84;99007;-91
2022/07/16 19:04:42;;;;;;;3.13;1.20;;;;;;;16.14;67.23;100882.19;3472162;84;98820;-90
2022/07/16 19:09:44;;;;;;;3.33;1.40;;;;;;;16.07;67.75;100889.17;3485811;84;99000;-91
2022/07/16 19:14:45;;;;;;;2.80;1.00;;;;;;;16.00;67.99;100899.50;3479763;84;98875;-91
2022/07/16 19:19:46;;;;;;;5.08;1.12;;;;;;;15.92;68.81;100913.23;3457693;84;98868;-91
2022/07/16 19:24:47;;;;;;;5.43;1.60;;;;;;;15.81;68.99;100919.41;3492587;84;33448;-91
2022/07/16 19:29:48;;;;;;;3.27;1.10;;;;;;;15.68;69.27;100921.00;3460482;84;98744;-91
2022/07/16 19:34:49;;;;;;;5.05;0.98;;;;;;;15.57;69.20;100925.19;3497382;84;98706;-91
2022/07/16 19:39:51;;;;;;;3.02;1.10;;;;;;;15.51;70.17;100942.63;3458659;83;98850;-91
2022/07/16 19:44:54;;;;;;;6.10;1.40;;;;;;;15.43;70.90;100949.37;3459510;84;98877;-92
2022/07/16 19:49:55;;;;;;;5.58;1.60;;;;;;;15.35;71.28;100943.62;3489024;84;99053;-92
2022/07/16 19:58:00;;;;;;;5.07;1.23;;;;;;;15.28;71.69;100956.08;3466113;84;25955;-91
2022/07/16 20:00:01;;;;;;;2.67;1.20;;;;;;;15.16;71.92;100957.25;3468535;83;98895;-91
2022/07/16 20:05:02;;;;;;;7.25;1.65;;;;;;;15.06;72.07;100960.02;3490592;84;98647;-91
2022/07/16 20:10:04;;;;;;;4.57;1.40;;;;;;;14.99;72.65;100962.79;3481023;84;99024;-92
2022/07/16 20:15:06;;;;;;;5.35;1.30;;;;;;;14.90;72.79;100977.03;3479015;84;99343;-92
2022/07/16 20:20:09;;;;;;;3.85;1.45;;;;;;;14.80;73.06;100977.79;3469413;84;98844;-91
2022/07/16 20:25:13;;;;;;;3.83;1.20;;;;;;;14.73;73.29;100981.94;3453783;84;32967;-91
2022/07/16 20:30:18;;;;;;;3.87;1.27;;;;;;;14.65;73.79;100986.44;3476150;84;98783;-92
2022/07/16 20:35:19;;;;;;;4.33;1.70;;;;;;;14.57;73.87;100988.98;3471093;84;98694;-92
2022/07/16 20:40:20;;;;;;;6.58;1.37;;;;;;;14.50;74.22;101003.59;3485779;84;98817;-92
2022/07/16 20:45:22;;;;;;;4.00;1.20;;;;;;;14.44;74.87;101002.39;3497266;84;99308;-92
2022/07/16 20:50:23;;;;;;;6.07;1.47;;;;;;;14.39;74.73;101006.91;3460498;84;98439;-92
2022/07/16 20:55:24;;;;;;;5.63;1.73;;;;;;;14.32;74.81;101011.61;3467495;84;31581;-92
2022/07/16 21:00:25;;;;;;;4.23;1.60;;;;;;;14.25;75.49;101020.70;3463069;84;98851;-91
2022/07/16 21:05:26;;;;;;;6.23;2.10;;;;;;;14.21;75.71;101027.37;3455559;84;98644;-92
2022/07/16 21:10:27;;;;;;;5.00;1.70;;;;;;;14.12;75.87;101028.30;3437054;84;98869;-94
2022/07/16 21:15:28;;;;;;;8.17;2.27;;;;;;;14.10;76.53;101038.94;3443365;84;99208;-93
2022/07/16 21:20:29;;;;;;;6.80;1.73;;;;;;;14.03;76.31;101041.09;3407989;84;98784;-93
2022/07/16 21:25:31;;;;;;;5.87;1.60;;;;;;;13.99;76.78;101035.31;3442909;84;98857;-92
2022/07/16 21:30:32;;;;;;;5.20;1.50;;;;;;;13.93;77.25;101047.92;3434123;84;98919;-93
2022/07/16 21:35:33;;;;;;;6.23;1.67;;;;;;;13.88;77.01;101057.38;3423459;85;98725;-92
2022/07/16 21:40:34;;;;;;;5.47;1.70;;;;;;;13.84;77.45;101064.86;3414729;85;99231;-93
2022/07/16 21:45:35;;;;;;;4.33;1.50;;;;;;;13.80;77.47;101070.94;3418747;84;98025;-94
2022/07/16 21:50:36;;;;;;;5.57;1.50;;;;;;;13.78;78.13;101074.69;3416872;84;99238;-91
2022/07/16 21:55:38;;;;;;;5.30;1.47;;;;;;;13.71;77.94;101083.52;3423477;85;98695;-92
2022/07/16 22:00:39;;;;;;;5.65;1.50;;;;;;;13.70;78.30;101082.73;3438890;84;98829;-91
2022/07/16 22:05:41;;;;;;;4.72;1.57;;;;;;;13.67;78.48;101082.68;3438875;85;98638;-92
2022/07/16 22:10:42;;;;;;;5.53;1.25;;;;;;;13.65;78.44;101098.30;3434479;85;98983;-92
2022/07/16 22:15:43;;;;;;;4.33;1.60;;;;;;;13.58;78.44;101096.83;3447193;85;98759;-92
2022/07/16 22:20:54;;;;;;;4.17;1.77;;;;;;;13.58;78.72;101105.73;3414187;85;98823;-93
2022/07/16 22:25:56;;;;;;;6.97;1.40;;;;;;;13.59;78.73;101103.17;3435252;84;98788;-92
2022/07/16 22:30:58;;;;;;;5.58;1.57;;;;;;;13.59;79.03;101109.51;3420952;85;98597;-92
2022/07/16 22:35:59;;;;;;;9.33;1.57;;;;;;;13.61;79.06;101109.10;3433704;85;99065;-94
2022/07/16 22:41:00;;;;;;;4.60;1.37;;;;;;;13.68;79.52;101115.50;3432423;83;98340;-92
2022/07/16 22:46:01;;;;;;;3.13;1.20;;;;;;;13.69;79.35;101119.08;3420930;85;98790;-92
2022/07/16 22:51:02;;;;;;;3.13;1.07;;;;;;;13.70;79.42;101131.73;3419785;84;99290;-92
2022/07/16 22:56:03;;;;;;;7.15;1.52;;;;;;;13.72;79.74;101130.17;3418598;85;99005;-91
2022/07/16 23:01:05;;;;;;;3.30;1.07;;;;;;;13.73;79.54;101128.98;3437774;85;98440;-92
2022/07/16 23:06:06;;;;;;;6.70;1.40;;;;;;;13.75;79.69;101138.30;3484310;84;99021;-93
2022/07/16 23:11:07;;;;;;;5.73;1.33;;;;;;;13.75;80.00;101141.06;3474236;84;98785;-92
2022/07/16 23:16:08;;;;;;;5.20;1.47;;;;;;;13.75;80.12;101154.32;3466117;84;98813;-92
2022/07/16 23:21:09;;;;;;;4.13;1.50;;;;;;;13.75;79.70;101150.75;3466457;84;98438;-92
2022/07/16 23:26:11;;;;;;;4.40;1.50;;;;;;;13.68;80.10;101150.69;3477544;83;98878;-91
2022/07/16 23:31:12;;;;;;;4.87;1.70;;;;;;;13.65;80.07;101148.09;3476513;84;98576;-94
2022/07/16 23:36:13;;;;;;;3.83;1.20;;;;;;;13.59;80.27;101151.00;3469773;84;98725;-92
2022/07/16 23:41:14;;;;;;;4.63;1.23;;;;;;;13.56;80.29;101145.40;3462448;83;99053;-92
2022/07/16 23:46:15;;;;;;;5.57;1.70;;;;;;;13.50;80.45;101155.22;3484440;84;98890;-93